Time;durP1;ratioP1;P1;durP2;ratioP2;P2;SDS_P1;SDS_P2;PMS_P1;PMS_P2;Temp;Humidity;BMP_temperature;BMP_pressure;BME280_temperature;BME280_humidity;BME280_pressure;Samples;Min_cycle;Max_cycle;Signal;HPM_P1;HPM_P2
2021/08/25 00:01:34;;;;;;;4.47;2.83;;;14.10;1.00;;;;;;5069875;28;20440;-71
2021/08/25 00:04:00;;;;;;;5.27;3.30;;;14.20;1.00;;;;;;5066976;28;20452;-71
2021/08/25 00:06:26;;;;;;;5.07;3.00;;;14.20;1.00;;;;;;5069279;28;21750;-71
2021/08/25 00:08:52;;;;;;;4.40;2.63;;;14.10;1.00;;;;;;5064914;28;20448;-71
2021/08/25 00:11:17;;;;;;;4.63;3.23;;;14.10;1.00;;;;;;5071481;28;20197;-70
2021/08/25 00:13:43;;;;;;;6.10;2.90;;;14.10;1.00;;;;;;5065285;28;20187;-71
2021/08/25 00:16:10;;;;;;;4.63;2.93;;;14.10;1.00;;;;;;5067850;28;20214;-71
2021/08/25 00:18:35;;;;;;;4.03;2.70;;;14.00;1.00;;;;;;5067388;28;20487;-71
2021/08/25 00:21:01;;;;;;;7.87;4.20;;;13.90;1.00;;;;;;5067257;28;20595;-71
2021/08/25 00:23:26;;;;;;;5.30;3.10;;;13.90;1.00;;;;;;5065416;28;20231;-71
2021/08/25 00:25:54;;;;;;;7.17;4.17;;;13.90;1.00;;;;;;5064054;28;20185;-71
2021/08/25 00:28:20;;;;;;;6.60;2.80;;;13.90;1.00;;;;;;5066884;28;20189;-71
2021/08/25 00:30:46;;;;;;;5.47;2.90;;;13.90;1.00;;;;;;5065459;28;20459;-71
2021/08/25 00:33:11;;;;;;;5.10;2.77;;;13.80;1.00;;;;;;5065113;28;20461;-71
2021/08/25 00:35:37;;;;;;;4.23;2.60;;;13.70;1.00;;;;;;5064456;28;20214;-71
2021/08/25 00:38:03;;;;;;;4.77;3.30;;;13.60;1.00;;;;;;5061195;28;20692;-71
2021/08/25 00:40:29;;;;;;;3.77;2.50;;;13.50;1.00;;;;;;5064707;28;20198;-71
2021/08/25 00:42:55;;;;;;;6.20;3.10;;;13.40;1.00;;;;;;5065921;28;20440;-71
2021/08/25 00:45:20;;;;;;;6.37;3.23;;;13.40;1.00;;;;;;5068182;28;20204;-71
2021/08/25 00:47:48;;;;;;;4.07;2.83;;;13.30;1.00;;;;;;5066313;28;20186;-71
2021/08/25 00:50:15;;;;;;;5.87;3.10;;;13.30;1.00;;;;;;5064786;28;20301;-71
2021/08/25 00:52:42;;;;;;;5.23;3.03;;;13.20;1.00;;;;;;5058582;28;20466;-72
2021/08/25 00:55:13;;;;;;;6.57;2.93;;;13.10;1.00;;;;;;5062569;28;20499;-71
2021/08/25 00:57:39;;;;;;;7.10;2.70;;;13.10;1.00;;;;;;5064745;28;20471;-71
2021/08/25 01:00:07;;;;;;;6.80;3.30;;;13.20;1.00;;;;;;5067679;28;20440;-71
2021/08/25 01:02:49;;;;;;;8.50;4.13;;;13.10;1.00;;;;;;5065132;28;20448;-71
2021/08/25 01:05:16;;;;;;;8.03;3.30;;;13.00;1.00;;;;;;5066305;28;20997;-71
2021/08/25 01:07:44;;;;;;;11.77;3.43;;;13.00;1.00;;;;;;5065732;28;20448;-71
2021/08/25 01:10:29;;;;;;;5.03;2.80;;;13.00;1.00;;;;;;5063947;28;20534;-71
2021/08/25 01:13:02;;;;;;;11.27;4.10;;;13.00;1.00;;;;;;5066787;28;20458;-71
2021/08/25 01:15:37;;;;;;;6.47;3.40;;;13.10;1.00;;;;;;5067558;28;20460;-72
2021/08/25 01:18:05;;;;;;;5.30;2.87;;;13.00;1.00;;;;;;5064694;28;20879;-71
2021/08/25 01:20:31;;;;;;;13.73;5.50;;;13.00;1.00;;;;;;5063626;28;20479;-71
2021/08/25 01:22:57;;;;;;;10.63;3.90;;;13.00;1.00;;;;;;5063490;28;20443;-71
2021/08/25 01:25:28;;;;;;;7.07;2.60;;;12.90;1.00;;;;;;5063959;28;20466;-70
2021/08/25 01:27:58;;;;;;;3.53;2.53;;;12.80;1.00;;;;;;5041403;28;20472;-71
2021/08/25 01:30:26;;;;;;;5.73;3.10;;;12.60;1.00;;;;;;5064090;28;20475;-71
2021/08/25 01:32:52;;;;;;;6.00;3.30;;;12.50;1.00;;;;;;5051896;28;20886;-71
2021/08/25 01:35:17;;;;;;;7.37;3.10;;;12.40;1.00;;;;;;5067616;28;20464;-71
2021/08/25 01:37:44;;;;;;;8.07;3.10;;;12.40;1.00;;;;;;5064874;28;20885;-71
2021/08/25 01:40:10;;;;;;;4.93;3.10;;;12.40;1.00;;;;;;5064509;28;20185;-71
2021/08/25 01:42:36;;;;;;;4.60;3.23;;;12.30;1.00;;;;;;5064387;28;20472;-71
2021/08/25 01:45:03;;;;;;;5.80;2.80;;;12.30;1.00;;;;;;5065883;28;22541;-71
2021/08/25 01:47:28;;;;;;;5.43;3.00;;;12.30;1.00;;;;;;5062974;28;20194;-71
2021/08/25 01:49:54;;;;;;;4.10;3.10;;;12.30;1.00;;;;;;5063649;28;20483;-71
2021/08/25 01:52:20;;;;;;;3.67;2.60;;;12.40;1.00;;;;;;5070330;28;20273;-71
2021/08/25 01:54:48;;;;;;;9.40;3.30;;;12.30;1.00;;;;;;5070586;28;20456;-71
2021/08/25 01:57:14;;;;;;;4.87;3.43;;;12.30;1.00;;;;;;5073102;28;20443;-72
2021/08/25 01:59:39;;;;;;;5.50;2.93;;;12.30;1.00;;;;;;5065988;28;20453;-71
2021/08/25 02:02:06;;;;;;;5.63;3.60;;;12.20;1.00;;;;;;5065537;28;20273;-70
2021/08/25 02:04:33;;;;;;;5.90;2.87;;;12.20;1.00;;;;;;5066099;28;20214;-71
2021/08/25 02:06:59;;;;;;;5.03;3.17;;;12.10;1.00;;;;;;5071171;28;20592;-71
2021/08/25 02:09:24;;;;;;;4.43;3.10;;;12.10;1.00;;;;;;5071409;28;20486;-71
2021/08/25 02:11:50;;;;;;;6.73;2.97;;;12.20;1.00;;;;;;5065589;28;20182;-71
2021/08/25 02:14:16;;;;;;;6.53;3.53;;;12.20;1.00;;;;;;5070753;28;20189;-71
2021/08/25 02:16:42;;;;;;;6.07;3.87;;;12.20;1.00;;;;;;5069350;28;20478;-71
2021/08/25 02:19:08;;;;;;;5.37;3.70;;;12.10;1.00;;;;;;5063930;28;20441;-71
2021/08/25 02:21:34;;;;;;;8.83;3.83;;;12.00;1.00;;;;;;5067467;28;20201;-71
2021/08/25 02:23:59;;;;;;;8.73;3.90;;;12.00;1.00;;;;;;5065046;28;20665;-71
2021/08/25 02:26:25;;;;;;;6.40;3.33;;;12.00;1.00;;;;;;5069833;28;20243;-71
2021/08/25 02:28:53;;;;;;;7.00;3.20;;;12.00;1.00;;;;;;5066075;28;20247;-71
2021/08/25 02:31:19;;;;;;;5.13;3.50;;;12.00;1.00;;;;;;5068682;28;20182;-71
2021/08/25 02:33:46;;;;;;;5.17;3.50;;;12.00;1.00;;;;;;5069105;28;21036;-71
2021/08/25 02:36:13;;;;;;;5.20;3.83;;;11.90;1.00;;;;;;5069312;28;20459;-71
2021/08/25 02:38:39;;;;;;;6.83;3.87;;;11.90;1.00;;;;;;5066001;28;20452;-71
2021/08/25 02:41:08;;;;;;;6.83;3.33;;;11.80;1.00;;;;;;5068108;28;20860;-71
2021/08/25 02:43:34;;;;;;;7.73;3.90;;;11.80;1.00;;;;;;5070132;28;20558;-71
2021/08/25 02:46:01;;;;;;;7.80;4.17;;;11.80;1.00;;;;;;5067013;28;20447;-71
2021/08/25 02:48:27;;;;;;;5.63;3.93;;;11.80;1.00;;;;;;5064680;28;20446;-71
2021/08/25 02:50:53;;;;;;;7.33;3.97;;;11.70;1.00;;;;;;5068649;28;20473;-72
2021/08/25 02:53:19;;;;;;;7.97;3.70;;;11.70;1.00;;;;;;5067610;28;20190;-71
2021/08/25 02:55:45;;;;;;;5.50;4.23;;;11.70;1.00;;;;;;5068493;28;20221;-71
2021/08/25 02:58:11;;;;;;;5.50;3.83;;;11.80;1.00;;;;;;5068543;28;20614;-71
2021/08/25 03:00:36;;;;;;;8.10;4.37;;;11.70;1.00;;;;;;5066937;28;20504;-71
2021/08/25 03:03:02;;;;;;;9.40;4.10;;;11.80;1.00;;;;;;5064952;28;20190;-71
2021/08/25 03:05:28;;;;;;;9.30;4.67;;;11.70;1.00;;;;;;5068434;28;20205;-71
2021/08/25 03:07:54;;;;;;;6.23;4.00;;;11.60;1.00;;;;;;5068122;28;20441;-71
2021/08/25 03:10:19;;;;;;;6.43;4.40;;;11.60;1.00;;;;;;5065321;28;20610;-71
2021/08/25 03:12:45;;;;;;;5.03;3.80;;;11.70;1.00;;;;;;5062912;28;20185;-71
2021/08/25 03:15:11;;;;;;;6.20;3.73;;;11.70;1.00;;;;;;5065699;28;20574;-71
2021/08/25 03:17:37;;;;;;;3.70;3.30;;;11.60;1.00;;;;;;5066506;28;20190;-71
2021/08/25 03:20:08;;;;;;;7.40;4.43;;;11.50;1.00;;;;;;5068619;28;20460;-72
2021/08/25 03:22:35;;;;;;;5.63;3.97;;;11.60;1.00;;;;;;5055783;28;20444;-71
2021/08/25 03:25:01;;;;;;;6.77;4.10;;;11.60;1.00;;;;;;5053260;28;20448;-71
2021/08/25 03:27:27;;;;;;;5.10;3.93;;;11.60;1.00;;;;;;5068959;28;20446;-71
2021/08/25 03:29:52;;;;;;;7.03;3.90;;;11.60;1.00;;;;;;5070596;28;20451;-71
2021/08/25 03:32:18;;;;;;;6.40;4.00;;;11.60;1.00;;;;;;5064488;28;20206;-71
2021/08/25 03:34:44;;;;;;;7.30;4.20;;;11.60;1.00;;;;;;5065956;28;20193;-71
2021/08/25 03:37:09;;;;;;;10.13;3.73;;;11.60;1.00;;;;;;5070295;28;20714;-71
2021/08/25 03:39:35;;;;;;;6.03;4.10;;;11.60;1.00;;;;;;5068259;28;20769;-71
2021/08/25 03:42:01;;;;;;;6.10;4.33;;;11.60;1.00;;;;;;5068966;28;20816;-71
2021/08/25 03:44:26;;;;;;;7.37;3.87;;;11.50;1.00;;;;;;5062392;28;20261;-72
2021/08/25 03:46:52;;;;;;;8.17;3.80;;;11.50;1.00;;;;;;5064435;28;20292;-71
2021/08/25 03:49:18;;;;;;;8.13;4.30;;;11.40;1.00;;;;;;5064737;28;20448;-71
2021/08/25 03:51:43;;;;;;;6.43;3.57;;;11.30;1.00;;;;;;5064994;28;20202;-71
2021/08/25 03:54:09;;;;;;;5.27;3.80;;;11.30;1.00;;;;;;5064610;28;20189;-71
2021/08/25 03:56:35;;;;;;;4.60;3.73;;;11.40;1.00;;;;;;5064880;28;20579;-71
2021/08/25 03:59:01;;;;;;;14.50;4.73;;;11.30;1.00;;;;;;5069602;28;20189;-71
2021/08/25 04:01:26;;;;;;;6.73;4.63;;;11.40;1.00;;;;;;5065555;28;20220;-71
2021/08/25 04:03:52;;;;;;;5.57;4.20;;;11.20;1.00;;;;;;5065862;28;20233;-71
2021/08/25 04:06:18;;;;;;;5.30;3.70;;;11.10;1.00;;;;;;5066497;28;20237;-71
2021/08/25 04:08:43;;;;;;;5.93;3.97;;;10.90;1.00;;;;;;5068303;28;20451;-71
2021/08/25 04:11:09;;;;;;;11.33;3.30;;;11.00;1.00;;;;;;5067132;28;20235;-71
2021/08/25 04:13:35;;;;;;;7.03;4.17;;;10.90;1.00;;;;;;5048774;28;20273;-71
2021/08/25 04:16:00;;;;;;;5.90;3.07;;;10.80;1.00;;;;;;5066480;28;20348;-71
2021/08/25 04:18:26;;;;;;;4.70;3.23;;;10.80;1.00;;;;;;5065235;28;20181;-71
2021/08/25 04:20:52;;;;;;;4.97;3.60;;;10.80;1.00;;;;;;5064387;28;20600;-71
2021/08/25 04:23:18;;;;;;;5.30;4.00;;;10.80;1.00;;;;;;5064328;28;20182;-71
2021/08/25 04:25:44;;;;;;;6.47;4.03;;;10.70;1.00;;;;;;5061302;28;20539;-71
2021/08/25 04:28:11;;;;;;;8.30;4.17;;;10.80;1.00;;;;;;5067097;28;20505;-71
2021/08/25 04:30:37;;;;;;;6.47;4.07;;;10.80;1.00;;;;;;5067535;28;20470;-71
2021/08/25 04:33:03;;;;;;;5.07;3.87;;;10.90;1.00;;;;;;5065293;28;20480;-71
2021/08/25 04:35:29;;;;;;;6.03;4.23;;;10.80;1.00;;;;;;5067892;28;20198;-71
2021/08/25 04:37:54;;;;;;;9.83;3.60;;;10.70;1.00;;;;;;5067998;28;20450;-70
2021/08/25 04:40:20;;;;;;;6.90;4.23;;;10.70;1.00;;;;;;5062517;28;20217;-71
2021/08/25 04:42:46;;;;;;;6.43;4.10;;;10.70;1.00;;;;;;5064208;28;20182;-71
2021/08/25 04:45:12;;;;;;;8.53;5.27;;;10.90;1.00;;;;;;5048731;28;20187;-71
2021/08/25 04:47:37;;;;;;;10.90;4.63;;;10.80;1.00;;;;;;5069587;28;20819;-71
2021/08/25 04:50:03;;;;;;;9.70;4.87;;;10.70;1.00;;;;;;5065374;28;20280;-71
2021/08/25 04:52:29;;;;;;;6.03;4.47;;;10.70;1.00;;;;;;5071656;28;20205;-71
2021/08/25 04:54:55;;;;;;;8.13;5.10;;;10.70;1.00;;;;;;5057620;28;20487;-71
2021/08/25 04:57:20;;;;;;;6.23;4.80;;;10.70;1.00;;;;;;5064893;28;20191;-71
2021/08/25 04:59:46;;;;;;;7.30;5.40;;;10.70;1.00;;;;;;5066807;28;20296;-71
2021/08/25 05:02:12;;;;;;;7.70;5.60;;;10.70;1.00;;;;;;5066430;28;20911;-71
2021/08/25 05:04:37;;;;;;;8.60;6.07;;;10.60;1.00;;;;;;5065507;28;20189;-71
2021/08/25 05:07:03;;;;;;;7.50;5.73;;;10.60;1.00;;;;;;5065164;28;20225;-71
2021/08/25 05:09:29;;;;;;;8.50;6.60;;;10.70;1.00;;;;;;5062863;28;20499;-71
2021/08/25 05:11:54;;;;;;;10.17;7.67;;;10.80;1.00;;;;;;5065353;28;20190;-71
2021/08/25 05:14:21;;;;;;;8.20;5.80;;;10.80;1.00;;;;;;5046397;28;20242;-71
2021/08/25 05:16:47;;;;;;;6.53;4.90;;;10.90;1.00;;;;;;5067141;28;20701;-71
2021/08/25 05:19:13;;;;;;;9.93;4.90;;;11.00;1.00;;;;;;5068728;28;20436;-71
2021/08/25 05:21:38;;;;;;;6.50;4.60;;;11.10;1.00;;;;;;5064423;28;20225;-71
2021/08/25 05:24:04;;;;;;;10.40;4.90;;;11.10;1.00;;;;;;5063010;28;20193;-71
2021/08/25 05:26:30;;;;;;;11.43;6.73;;;11.10;1.00;;;;;;5067148;28;20194;-71
2021/08/25 05:28:56;;;;;;;6.37;5.50;;;11.10;1.00;;;;;;5072489;28;20576;-71
2021/08/25 05:31:23;;;;;;;10.17;5.90;;;11.10;1.00;;;;;;5070632;28;20191;-72
2021/08/25 05:33:49;;;;;;;7.03;4.63;;;11.20;1.00;;;;;;5068208;28;20530;-72
2021/08/25 05:36:15;;;;;;;5.90;4.90;;;11.30;1.00;;;;;;5056852;28;20483;-71
2021/08/25 05:38:40;;;;;;;12.40;6.23;;;11.30;1.00;;;;;;5068789;28;20201;-71
2021/08/25 05:41:06;;;;;;;7.50;4.90;;;11.20;1.00;;;;;;5070848;28;20275;-71
2021/08/25 05:43:32;;;;;;;6.77;4.70;;;11.10;1.00;;;;;;5074787;28;20178;-71
2021/08/25 05:45:57;;;;;;;10.60;5.40;;;11.00;1.00;;;;;;5068273;28;20202;-71
2021/08/25 05:48:23;;;;;;;6.83;4.83;;;11.10;1.00;;;;;;5060133;28;20186;-71
2021/08/25 05:50:50;;;;;;;6.00;4.40;;;11.20;1.00;;;;;;5061360;28;20937;-71
2021/08/25 05:53:16;;;;;;;8.40;5.50;;;11.30;1.00;;;;;;5063990;28;20193;-71
2021/08/25 05:55:41;;;;;;;5.70;4.10;;;11.40;1.00;;;;;;5072001;28;20486;-71
2021/08/25 05:58:07;;;;;;;6.67;4.60;;;11.50;1.00;;;;;;5070853;28;20189;-71
2021/08/25 06:00:33;;;;;;;6.60;4.40;;;11.50;1.00;;;;;;5066642;28;20323;-71
2021/08/25 06:02:58;;;;;;;8.37;4.90;;;11.40;1.00;;;;;;5066264;28;20185;-71
2021/08/25 06:05:24;;;;;;;11.10;5.43;;;11.50;1.00;;;;;;5071345;28;20447;-71
2021/08/25 06:07:50;;;;;;;10.90;4.70;;;11.50;1.00;;;;;;5071036;28;20249;-71
2021/08/25 06:10:16;;;;;;;8.83;4.90;;;11.60;1.00;;;;;;5074648;28;20189;-71
2021/08/25 06:12:41;;;;;;;9.90;5.20;;;11.70;1.00;;;;;;5067903;28;20459;-71
2021/08/25 06:15:07;;;;;;;7.73;5.37;;;11.60;1.00;;;;;;5075907;28;20210;-71
2021/08/25 06:17:33;;;;;;;6.13;5.50;;;11.60;1.00;;;;;;5066832;28;20201;-71
2021/08/25 06:19:59;;;;;;;7.43;5.70;;;11.50;1.00;;;;;;5070949;28;20448;-71
2021/08/25 06:22:24;;;;;;;7.47;6.07;;;11.50;1.00;;;;;;5071090;28;20197;-71
2021/08/25 06:24:50;;;;;;;9.80;5.93;;;11.50;1.00;;;;;;5071585;28;20201;-71
2021/08/25 06:27:15;;;;;;;6.40;5.23;;;11.50;1.00;;;;;;5059145;28;20178;-71
2021/08/25 06:29:41;;;;;;;11.17;6.37;;;11.50;1.00;;;;;;5068678;28;20489;-71
2021/08/25 06:32:07;;;;;;;7.53;5.57;;;11.60;1.00;;;;;;5071080;28;22305;-71
2021/08/25 06:34:37;;;;;;;8.40;5.60;;;11.70;1.00;;;;;;5064260;28;20186;-71
2021/08/25 06:37:03;;;;;;;7.20;5.40;;;11.90;1.00;;;;;;5045747;28;20491;-71
2021/08/25 06:39:28;;;;;;;8.20;5.67;;;12.10;1.00;;;;;;5071174;28;20452;-71
2021/08/25 06:41:54;;;;;;;8.30;5.53;;;12.20;1.00;;;;;;5071010;28;20185;-71
2021/08/25 06:44:20;;;;;;;7.77;5.60;;;12.40;1.00;;;;;;5072612;28;20202;-71
2021/08/25 06:46:46;;;;;;;9.60;6.83;;;12.60;1.00;;;;;;5069447;28;20197;-71
2021/08/25 06:49:11;;;;;;;13.10;6.67;;;12.80;1.00;;;;;;5072305;28;20235;-71
2021/08/25 06:51:37;;;;;;;9.70;7.83;;;13.00;1.00;;;;;;5074065;28;20216;-71
2021/08/25 06:54:02;;;;;;;8.60;6.93;;;13.10;1.00;;;;;;5070262;28;20733;-71
2021/08/25 06:56:28;;;;;;;7.57;5.47;;;13.30;1.00;;;;;;5069349;28;20258;-71
2021/08/25 06:58:54;;;;;;;8.43;6.23;;;13.50;1.00;;;;;;5067612;28;20197;-71
2021/08/25 07:01:21;;;;;;;7.37;5.40;;;13.60;1.00;;;;;;5065988;28;20177;-71
2021/08/25 07:03:47;;;;;;;11.30;6.20;;;13.90;1.00;;;;;;5073922;28;20296;-71
2021/08/25 07:06:13;;;;;;;8.60;5.33;;;14.10;1.00;;;;;;5067870;28;20508;-71
2021/08/25 07:08:38;;;;;;;8.27;5.10;;;14.10;1.00;;;;;;5069137;28;20781;-71
2021/08/25 07:11:04;;;;;;;7.73;4.67;;;14.10;1.00;;;;;;5068028;28;20186;-70
2021/08/25 07:13:30;;;;;;;7.07;5.17;;;14.20;1.00;;;;;;5071898;28;20197;-70
2021/08/25 07:15:55;;;;;;;9.07;5.40;;;14.20;1.00;;;;;;5049759;28;20212;-70
2021/08/25 07:18:21;;;;;;;6.67;4.97;;;14.20;1.00;;;;;;5063556;28;20192;-71
2021/08/25 07:20:47;;;;;;;9.00;5.13;;;14.30;1.00;;;;;;5069605;28;20197;-70
2021/08/25 07:23:13;;;;;;;8.00;5.57;;;14.40;1.00;;;;;;5070205;28;20240;-70
2021/08/25 07:25:39;;;;;;;7.67;4.93;;;14.50;1.00;;;;;;5071780;28;20447;-70
2021/08/25 07:28:05;;;;;;;9.13;4.60;;;14.50;1.00;;;;;;5068766;28;20456;-70
2021/08/25 07:30:31;;;;;;;9.67;5.57;;;14.60;1.00;;;;;;5070501;28;20459;-70
2021/08/25 07:32:56;;;;;;;9.23;4.67;;;14.80;1.00;;;;;;5071595;28;20229;-70
2021/08/25 07:35:23;;;;;;;8.00;4.47;;;14.90;1.00;;;;;;5068229;28;20731;-71
2021/08/25 07:37:49;;;;;;;7.40;4.90;;;15.00;1.00;;;;;;5068136;28;20193;-70
2021/08/25 07:40:14;;;;;;;10.67;4.17;;;15.00;1.00;;;;;;5069358;28;20972;-70
2021/08/25 07:42:40;;;;;;;7.27;4.73;;;15.20;1.00;;;;;;5068167;28;20182;-70
2021/08/25 07:45:06;;;;;;;6.57;4.30;;;15.20;1.00;;;;;;5070328;28;20306;-70
2021/08/25 07:47:32;;;;;;;5.20;3.80;;;15.40;1.00;;;;;;5071076;28;20260;-70
2021/08/25 07:49:57;;;;;;;7.77;4.13;;;15.60;1.00;;;;;;5063549;28;20448;-70
2021/08/25 07:52:23;;;;;;;9.10;4.80;;;15.60;1.00;;;;;;5070271;28;20255;-70
2021/08/25 07:54:49;;;;;;;8.70;4.70;;;15.80;1.00;;;;;;5067242;28;22202;-70
2021/08/25 07:57:15;;;;;;;12.60;4.80;;;15.90;1.00;;;;;;5074484;28;20192;-70
2021/08/25 07:59:41;;;;;;;9.37;4.37;;;15.90;1.00;;;;;;5072845;28;20780;-70
2021/08/25 08:02:06;;;;;;;8.30;4.63;;;15.90;1.00;;;;;;5066444;28;20452;-71
2021/08/25 08:04:32;;;;;;;6.60;4.20;;;16.10;1.00;;;;;;5071983;28;20185;-70
2021/08/25 08:06:58;;;;;;;9.17;5.10;;;16.10;1.00;;;;;;5073228;28;20472;-70
2021/08/25 08:09:24;;;;;;;8.23;4.30;;;16.10;1.00;;;;;;5074161;28;20201;-70
2021/08/25 08:11:49;;;;;;;8.10;4.43;;;16.20;1.00;;;;;;5066163;28;20235;-70
2021/08/25 08:14:15;;;;;;;8.97;4.73;;;16.20;1.00;;;;;;5072674;28;20190;-70
2021/08/25 08:16:44;;;;;;;8.00;4.77;;;16.30;1.00;;;;;;5074332;28;20194;-70
2021/08/25 08:19:22;;;;;;;7.00;4.07;;;16.40;1.00;;;;;;5070397;28;20186;-71
2021/08/25 08:21:49;;;;;;;7.33;3.43;;;16.60;1.00;;;;;;5070319;28;20461;-70
2021/08/25 08:24:15;;;;;;;11.10;4.83;;;16.80;1.00;;;;;;5061822;28;20451;-70
2021/08/25 08:26:41;;;;;;;10.77;3.40;;;16.80;1.00;;;;;;5071628;28;20444;-70
2021/08/25 08:29:07;;;;;;;6.07;3.60;;;17.00;1.00;;;;;;5069770;28;20491;-70
2021/08/25 08:31:33;;;;;;;17.33;4.87;;;17.00;1.00;;;;;;5067613;28;20539;-70
2021/08/25 08:33:59;;;;;;;10.90;4.67;;;17.20;1.00;;;;;;5068132;28;20194;-70
2021/08/25 08:36:25;;;;;;;10.03;4.90;;;17.30;1.00;;;;;;5067173;28;20480;-70
2021/08/25 08:38:50;;;;;;;12.97;3.63;;;17.40;1.00;;;;;;5070860;28;20273;-70
2021/08/25 08:41:16;;;;;;;11.30;4.60;;;17.50;1.00;;;;;;5068426;28;20531;-70
2021/08/25 08:43:43;;;;;;;5.50;4.30;;;17.60;1.00;;;;;;5063909;28;20308;-70
2021/08/25 08:46:12;;;;;;;9.07;4.37;;;17.70;1.00;;;;;;5067883;28;20249;-71
2021/08/25 08:48:38;;;;;;;9.47;4.40;;;17.90;1.00;;;;;;5070165;28;20456;-70
2021/08/25 08:51:05;;;;;;;7.50;4.40;;;18.00;1.00;;;;;;5066585;28;20456;-70
2021/08/25 08:53:31;;;;;;;10.97;4.43;;;18.10;1.00;;;;;;5070491;28;20945;-70
2021/08/25 08:55:57;;;;;;;7.37;4.07;;;18.10;1.00;;;;;;5068462;28;20532;-70
2021/08/25 08:58:22;;;;;;;9.30;4.30;;;18.20;1.00;;;;;;5069886;28;20213;-70
2021/08/25 09:00:48;;;;;;;6.23;4.23;;;18.20;1.00;;;;;;5068914;28;20846;-70
2021/08/25 09:03:27;;;;;;;7.57;4.30;;;18.20;1.00;;;;;;5070594;28;20190;-71
2021/08/25 09:05:58;;;;;;;8.00;4.53;;;18.30;1.00;;;;;;5072235;28;20192;-70
2021/08/25 09:08:28;;;;;;;9.80;4.30;;;18.50;1.00;;;;;;5071874;28;20450;-70
2021/08/25 09:11:13;;;;;;;6.93;4.97;;;18.60;1.00;;;;;;5068869;28;20493;-70
2021/08/25 09:13:50;;;;;;;7.60;3.70;;;18.70;1.00;;;;;;5068081;28;22310;-71
2021/08/25 09:16:30;;;;;;;7.63;4.67;;;18.80;1.00;;;;;;5072313;28;20607;-70
2021/08/25 09:19:13;;;;;;;8.50;4.33;;;18.90;1.00;;;;;;5069568;28;20588;-70
2021/08/25 09:21:43;;;;;;;8.03;4.90;;;18.80;1.00;;;;;;5052535;28;20535;-70
2021/08/25 09:24:11;;;;;;;7.70;4.60;;;18.90;1.00;;;;;;5065945;28;20448;-71
2021/08/25 09:26:58;;;;;;;6.37;4.17;;;18.90;1.00;;;;;;5067234;28;20456;-70
2021/08/25 09:29:24;;;;;;;7.37;4.17;;;18.90;1.00;;;;;;5066820;28;20466;-71
2021/08/25 09:31:50;;;;;;;8.40;4.73;;;18.90;1.00;;;;;;5066886;28;20940;-70
2021/08/25 09:34:29;;;;;;;7.30;4.77;;;19.00;1.00;;;;;;5069020;28;20224;-71
2021/08/25 09:37:19;;;;;;;7.73;4.73;;;18.90;1.00;;;;;;5064399;28;20510;-71
2021/08/25 09:39:47;;;;;;;7.10;4.00;;;18.90;1.00;;;;;;5067490;28;20479;-71
2021/08/25 09:42:16;;;;;;;8.93;4.60;;;18.90;1.00;;;;;;5065296;28;20835;-71
2021/08/25 09:44:43;;;;;;;7.33;4.07;;;19.10;1.00;;;;;;5064802;28;20866;-70
2021/08/25 09:47:09;;;;;;;6.27;4.07;;;19.30;1.00;;;;;;5063622;28;20456;-70
2021/08/25 09:49:35;;;;;;;7.13;4.67;;;19.40;1.00;;;;;;5066506;28;20448;-71
2021/08/25 09:52:01;;;;;;;6.00;4.03;;;19.60;1.00;;;;;;5069648;28;20459;-71
2021/08/25 09:54:27;;;;;;;6.47;4.00;;;19.50;1.00;;;;;;5063334;28;20505;-70
2021/08/25 09:56:53;;;;;;;7.47;4.07;;;19.60;1.00;;;;;;5072053;28;20580;-71
2021/08/25 09:59:20;;;;;;;9.50;4.73;;;19.60;1.00;;;;;;5053005;28;20184;-71
2021/08/25 10:01:47;;;;;;;6.93;4.27;;;19.70;1.00;;;;;;5067759;28;21031;-71
2021/08/25 10:04:14;;;;;;;10.70;4.47;;;19.80;1.00;;;;;;5067724;28;20798;-71
2021/08/25 10:06:45;;;;;;;6.73;3.97;;;19.80;1.00;;;;;;5064310;28;20464;-71
2021/08/25 10:09:12;;;;;;;6.90;4.20;;;19.90;1.00;;;;;;5069445;28;20446;-71
2021/08/25 10:11:51;;;;;;;10.00;4.83;;;20.10;1.00;;;;;;5069741;28;20435;-71
2021/08/25 10:14:17;;;;;;;8.00;4.10;;;20.10;1.00;;;;;;5073513;28;20454;-72
2021/08/25 10:16:51;;;;;;;8.40;4.40;;;20.10;1.00;;;;;;5067588;28;20587;-71
2021/08/25 10:19:29;;;;;;;9.10;4.93;;;20.00;1.00;;;;;;5057382;28;20452;-71
2021/08/25 10:22:01;;;;;;;8.57;4.70;;;20.10;1.00;;;;;;5066469;28;20470;-71
2021/08/25 10:24:27;;;;;;;7.53;4.50;;;20.20;1.00;;;;;;5067141;28;20495;-71
2021/08/25 10:26:59;;;;;;;9.37;5.00;;;20.40;1.00;;;;;;5070914;28;20879;-71
2021/08/25 10:29:28;;;;;;;9.03;4.33;;;20.20;1.00;;;;;;5066158;28;20491;-71
2021/08/25 10:31:57;;;;;;;8.23;5.20;;;20.10;1.00;;;;;;5062682;28;20457;-70
2021/08/25 10:34:24;;;;;;;7.20;4.63;;;20.20;1.00;;;;;;5061907;28;20447;-71
2021/08/25 10:36:51;;;;;;;7.77;4.90;;;20.30;1.00;;;;;;5052474;28;20517;-70
2021/08/25 10:39:29;;;;;;;5.83;4.20;;;20.40;1.00;;;;;;5070522;28;20448;-70
2021/08/25 10:41:58;;;;;;;9.43;5.20;;;20.40;1.00;;;;;;5065543;28;20551;-71
2021/08/25 10:44:48;;;;;;;10.93;5.10;;;20.30;1.00;;;;;;5060586;28;20475;-71
2021/08/25 10:47:16;;;;;;;7.90;4.53;;;20.50;1.00;;;;;;5068358;28;20505;-71
2021/08/25 10:49:49;;;;;;;7.53;3.70;;;20.60;1.00;;;;;;5070393;28;20890;-71
2021/08/25 10:52:14;;;;;;;7.40;3.90;;;20.70;1.00;;;;;;5068229;28;20566;-71
2021/08/25 10:54:45;;;;;;;7.83;4.40;;;20.80;1.00;;;;;;5063347;28;20520;-71
2021/08/25 10:57:13;;;;;;;8.27;4.57;;;20.80;1.00;;;;;;5069765;28;20537;-70
2021/08/25 10:59:40;;;;;;;8.33;5.07;;;20.70;1.00;;;;;;5057660;28;20487;-70
2021/08/25 11:02:06;;;;;;;7.20;4.33;;;20.90;1.00;;;;;;5061401;28;20885;-71
2021/08/25 11:04:31;;;;;;;7.80;4.97;;;21.00;1.00;;;;;;5059047;28;20455;-71
2021/08/25 11:07:02;;;;;;;6.50;4.47;;;21.00;1.00;;;;;;5058898;28;20452;-71
2021/08/25 11:09:30;;;;;;;8.03;4.70;;;21.20;1.00;;;;;;5068562;28;20190;-71
2021/08/25 11:12:02;;;;;;;8.80;3.50;;;21.00;1.00;;;;;;5068763;28;20577;-71
2021/08/25 11:14:37;;;;;;;6.27;3.67;;;20.90;1.00;;;;;;5069060;28;20963;-71
2021/08/25 11:17:22;;;;;;;8.10;4.10;;;21.20;1.00;;;;;;5070900;28;20578;-71
2021/08/25 11:19:49;;;;;;;9.07;4.33;;;21.20;1.00;;;;;;5066048;28;20931;-72
2021/08/25 11:22:24;;;;;;;8.50;4.17;;;21.20;1.00;;;;;;5063441;28;20796;-71
2021/08/25 11:24:54;;;;;;;9.63;4.10;;;21.30;1.00;;;;;;5066263;28;20443;-71
2021/08/25 11:27:28;;;;;;;9.77;4.77;;;21.30;1.00;;;;;;5047310;28;20433;-71
2021/08/25 11:30:15;;;;;;;10.10;4.73;;;21.20;1.00;;;;;;5074945;28;20566;-71
2021/08/25 11:33:00;;;;;;;6.10;4.10;;;21.30;1.00;;;;;;5076348;28;20586;-71
2021/08/25 11:35:33;;;;;;;7.13;4.23;;;21.40;1.00;;;;;;5019716;28;20494;-71
2021/08/25 11:38:08;;;;;;;5.67;3.67;;;21.40;1.00;;;;;;4979319;28;20479;-71
2021/08/25 11:40:40;;;;;;;9.00;4.47;;;21.50;1.00;;;;;;4926595;28;20488;-71
2021/08/25 11:43:07;;;;;;;7.23;4.60;;;21.50;1.00;;;;;;4889802;29;20826;-71
2021/08/25 11:45:34;;;;;;;6.30;4.53;;;21.50;1.00;;;;;;4826197;29;1042050;-71
2021/08/25 11:48:02;;;;;;;7.43;4.50;;;21.60;1.00;;;;;;4861096;29;20245;-71
2021/08/25 11:50:31;;;;;;;11.50;4.70;;;21.60;1.00;;;;;;4836970;29;20482;-71
2021/08/25 11:52:57;;;;;;;13.70;5.33;;;21.70;1.00;;;;;;4828786;29;21009;-71
2021/08/25 11:55:23;;;;;;;11.57;5.00;;;21.70;1.00;;;;;;4828056;29;20885;-71
2021/08/25 11:57:55;;;;;;;13.77;4.70;;;21.70;1.00;;;;;;4832120;29;20462;-71
2021/08/25 12:00:39;;;;;;;19.30;5.57;;;21.50;1.00;;;;;;4826676;29;20537;-71
2021/08/25 12:03:06;;;;;;;14.63;4.30;;;21.50;1.00;;;;;;4828036;29;20466;-71
2021/08/25 12:05:33;;;;;;;17.10;5.23;;;21.50;1.00;;;;;;4831177;29;20447;-70
2021/08/25 12:08:13;;;;;;;14.47;4.27;;;21.50;1.00;;;;;;4830815;29;20471;-71
2021/08/25 12:10:41;;;;;;;18.73;5.33;;;21.70;1.00;;;;;;4827626;29;20813;-70
2021/08/25 12:13:08;;;;;;;16.80;4.50;;;21.60;1.00;;;;;;4829615;29;20828;-71
2021/08/25 12:15:52;;;;;;;15.03;4.13;;;21.60;1.00;;;;;;4831052;29;20515;-71
2021/08/25 12:18:20;;;;;;;15.80;4.60;;;21.60;1.00;;;;;;4829744;29;20462;-71
2021/08/25 12:20:51;;;;;;;16.73;4.73;;;21.60;1.00;;;;;;4829487;29;20483;-70
2021/08/25 12:23:19;;;;;;;16.30;4.13;;;21.50;1.00;;;;;;4828912;29;20573;-71
2021/08/25 12:25:50;;;;;;;16.60;4.77;;;21.60;1.00;;;;;;4827881;29;20466;-71
2021/08/25 12:28:38;;;;;;;20.17;5.40;;;21.70;1.00;;;;;;4831260;29;20478;-71
2021/08/25 12:31:15;;;;;;;19.63;4.70;;;21.50;1.00;;;;;;4822438;29;20472;-71
2021/08/25 12:33:43;;;;;;;18.50;4.03;;;21.60;1.00;;;;;;4839306;29;20466;-71
2021/08/25 12:36:28;;;;;;;19.37;5.10;;;21.80;1.00;;;;;;4843217;29;22078;-71
2021/08/25 12:39:05;;;;;;;18.00;4.90;;;21.90;1.00;;;;;;4831821;29;20568;-71
2021/08/25 12:41:36;;;;;;;17.73;4.37;;;21.80;1.00;;;;;;4829106;29;20779;-71
2021/08/25 12:44:02;;;;;;;18.20;5.50;;;21.80;1.00;;;;;;4823750;29;20465;-71
2021/08/25 12:46:27;;;;;;;20.20;5.33;;;21.90;1.00;;;;;;4917336;28;20457;-71
2021/08/25 12:48:53;;;;;;;16.80;4.77;;;21.90;1.00;;;;;;4935008;28;20473;-71
2021/08/25 12:51:19;;;;;;;18.40;5.27;;;22.00;1.00;;;;;;4957994;28;20284;-71
2021/08/25 12:53:46;;;;;;;18.10;4.80;;;22.00;1.00;;;;;;4956237;28;20634;-71
2021/08/25 12:56:12;;;;;;;19.80;4.83;;;21.70;1.00;;;;;;4953886;28;20473;-71
2021/08/25 12:58:38;;;;;;;20.50;5.23;;;21.60;1.00;;;;;;4956370;28;20472;-71